sensor_id;sensor_type;location;lat;lon;timestamp;P1;durP1;ratioP1;P2;durP2;ratioP2
6203;SDS011;3135;42.602;23.468;2022-12-18T00:04:00;4.72;;;3.20;;
6203;SDS011;3135;42.602;23.468;2022-12-18T00:06:26;4.70;;;3.30;;
6203;SDS011;3135;42.602;23.468;2022-12-18T00:08:52;6.57;;;3.28;;
6203;SDS011;3135;42.602;23.468;2022-12-18T00:11:18;6.70;;;3.50;;
6203;SDS011;3135;42.602;23.468;2022-12-18T00:13:44;5.83;;;3.17;;
6203;SDS011;3135;42.602;23.468;2022-12-18T00:16:11;8.25;;;3.08;;
6203;SDS011;3135;42.602;23.468;2022-12-18T00:18:36;5.40;;;3.00;;
6203;SDS011;3135;42.602;23.468;2022-12-18T00:21:03;5.23;;;3.00;;
6203;SDS011;3135;42.602;23.468;2022-12-18T00:23:29;5.20;;;3.35;;
6203;SDS011;3135;42.602;23.468;2022-12-18T00:25:54;4.43;;;3.20;;
6203;SDS011;3135;42.602;23.468;2022-12-18T00:28:20;6.03;;;3.60;;
6203;SDS011;3135;42.602;23.468;2022-12-18T00:30:45;4.77;;;2.93;;
6203;SDS011;3135;42.602;23.468;2022-12-18T00:33:10;3.80;;;2.67;;
6203;SDS011;3135;42.602;23.468;2022-12-18T00:35:36;4.97;;;3.70;;
6203;SDS011;3135;42.602;23.468;2022-12-18T00:38:01;3.60;;;2.70;;
6203;SDS011;3135;42.602;23.468;2022-12-18T00:40:26;3.73;;;2.33;;
6203;SDS011;3135;42.602;23.468;2022-12-18T00:42:51;3.37;;;2.53;;
6203;SDS011;3135;42.602;23.468;2022-12-18T00:45:24;4.47;;;2.75;;
6203;SDS011;3135;42.602;23.468;2022-12-18T00:47:50;4.27;;;2.30;;
6203;SDS011;3135;42.602;23.468;2022-12-18T00:50:15;2.90;;;2.27;;
6203;SDS011;3135;42.602;23.468;2022-12-18T00:52:40;2.60;;;2.00;;
6203;SDS011;3135;42.602;23.468;2022-12-18T00:55:06;3.50;;;2.10;;
6203;SDS011;3135;42.602;23.468;2022-12-18T00:57:31;2.40;;;2.20;;
6203;SDS011;3135;42.602;23.468;2022-12-18T00:59:57;2.97;;;2.20;;
6203;SDS011;3135;42.602;23.468;2022-12-18T01:02:22;3.70;;;2.50;;
6203;SDS011;3135;42.602;23.468;2022-12-18T01:04:47;4.10;;;2.40;;
6203;SDS011;3135;42.602;23.468;2022-12-18T01:07:13;3.23;;;2.47;;
6203;SDS011;3135;42.602;23.468;2022-12-18T01:09:38;3.53;;;2.40;;
6203;SDS011;3135;42.602;23.468;2022-12-18T01:12:03;3.70;;;2.67;;
6203;SDS011;3135;42.602;23.468;2022-12-18T01:14:28;3.93;;;2.57;;
6203;SDS011;3135;42.602;23.468;2022-12-18T01:16:54;4.17;;;2.53;;
6203;SDS011;3135;42.602;23.468;2022-12-18T01:19:19;5.30;;;2.80;;
6203;SDS011;3135;42.602;23.468;2022-12-18T01:21:44;4.00;;;2.30;;
6203;SDS011;3135;42.602;23.468;2022-12-18T01:24:10;3.83;;;2.40;;
6203;SDS011;3135;42.602;23.468;2022-12-18T01:26:36;2.95;;;2.38;;
6203;SDS011;3135;42.602;23.468;2022-12-18T01:29:01;3.27;;;2.37;;
6203;SDS011;3135;42.602;23.468;2022-12-18T01:31:28;4.63;;;2.67;;
6203;SDS011;3135;42.602;23.468;2022-12-18T01:33:53;4.60;;;2.70;;
6203;SDS011;3135;42.602;23.468;2022-12-18T01:36:21;3.22;;;2.50;;
6203;SDS011;3135;42.602;23.468;2022-12-18T01:38:47;11.27;;;4.70;;
6203;SDS011;3135;42.602;23.468;2022-12-18T01:41:12;4.00;;;2.50;;
6203;SDS011;3135;42.602;23.468;2022-12-18T01:43:51;4.23;;;2.80;;
6203;SDS011;3135;42.602;23.468;2022-12-18T01:46:18;3.70;;;2.80;;
6203;SDS011;3135;42.602;23.468;2022-12-18T01:48:44;5.00;;;3.13;;
6203;SDS011;3135;42.602;23.468;2022-12-18T01:51:10;4.60;;;2.60;;
6203;SDS011;3135;42.602;23.468;2022-12-18T01:53:36;3.63;;;2.50;;
6203;SDS011;3135;42.602;23.468;2022-12-18T01:56:02;3.85;;;2.88;;
6203;SDS011;3135;42.602;23.468;2022-12-18T02:01:12;3.30;;;2.47;;
6203;SDS011;3135;42.602;23.468;2022-12-18T02:03:40;4.33;;;2.90;;
6203;SDS011;3135;42.602;23.468;2022-12-18T02:11:27;4.13;;;2.70;;
6203;SDS011;3135;42.602;23.468;2022-12-18T02:19:06;6.97;;;3.07;;
6203;SDS011;3135;42.602;23.468;2022-12-18T02:21:36;4.63;;;2.92;;
6203;SDS011;3135;42.602;23.468;2022-12-18T02:26:34;3.65;;;3.05;;
6203;SDS011;3135;42.602;23.468;2022-12-18T02:29:11;4.25;;;2.85;;
6203;SDS011;3135;42.602;23.468;2022-12-18T02:31:40;5.43;;;2.83;;
6203;SDS011;3135;42.602;23.468;2022-12-18T02:34:07;3.80;;;2.70;;
6203;SDS011;3135;42.602;23.468;2022-12-18T02:36:33;4.65;;;3.22;;
6203;SDS011;3135;42.602;23.468;2022-12-18T02:39:01;3.75;;;2.80;;
6203;SDS011;3135;42.602;23.468;2022-12-18T02:41:26;5.30;;;3.20;;
6203;SDS011;3135;42.602;23.468;2022-12-18T02:43:55;5.78;;;3.67;;
6203;SDS011;3135;42.602;23.468;2022-12-18T02:47:08;5.88;;;3.60;;
6203;SDS011;3135;42.602;23.468;2022-12-18T02:51:52;4.47;;;3.10;;
6203;SDS011;3135;42.602;23.468;2022-12-18T02:55:03;5.45;;;3.22;;
6203;SDS011;3135;42.602;23.468;2022-12-18T02:57:55;5.07;;;3.40;;
6203;SDS011;3135;42.602;23.468;2022-12-18T03:00:04;5.93;;;3.53;;
6203;SDS011;3135;42.602;23.468;2022-12-18T03:08:18;10.30;;;4.27;;
6203;SDS011;3135;42.602;23.468;2022-12-18T03:11:06;6.25;;;3.47;;
6203;SDS011;3135;42.602;23.468;2022-12-18T03:13:33;6.18;;;3.55;;
6203;SDS011;3135;42.602;23.468;2022-12-18T03:15:59;5.30;;;3.22;;
6203;SDS011;3135;42.602;23.468;2022-12-18T03:21:00;6.07;;;4.07;;
6203;SDS011;3135;42.602;23.468;2022-12-18T03:23:28;5.70;;;3.28;;
6203;SDS011;3135;42.602;23.468;2022-12-18T03:25:56;4.57;;;3.20;;
6203;SDS011;3135;42.602;23.468;2022-12-18T03:28:22;4.82;;;3.08;;
6203;SDS011;3135;42.602;23.468;2022-12-18T03:30:49;5.90;;;3.13;;
6203;SDS011;3135;42.602;23.468;2022-12-18T03:33:39;4.88;;;3.17;;
6203;SDS011;3135;42.602;23.468;2022-12-18T03:36:03;5.30;;;3.17;;
6203;SDS011;3135;42.602;23.468;2022-12-18T03:38:28;5.03;;;3.10;;
6203;SDS011;3135;42.602;23.468;2022-12-18T03:46:15;6.47;;;3.33;;
6203;SDS011;3135;42.602;23.468;2022-12-18T03:48:43;6.27;;;3.23;;
6203;SDS011;3135;42.602;23.468;2022-12-18T03:56:15;5.57;;;3.20;;
6203;SDS011;3135;42.602;23.468;2022-12-18T03:58:41;5.53;;;3.30;;
6203;SDS011;3135;42.602;23.468;2022-12-18T04:01:07;8.05;;;3.33;;
6203;SDS011;3135;42.602;23.468;2022-12-18T04:03:33;5.88;;;3.70;;
6203;SDS011;3135;42.602;23.468;2022-12-18T04:05:59;6.53;;;3.10;;
6203;SDS011;3135;42.602;23.468;2022-12-18T04:08:25;5.57;;;3.58;;
6203;SDS011;3135;42.602;23.468;2022-12-18T04:10:50;8.60;;;3.40;;
6203;SDS011;3135;42.602;23.468;2022-12-18T04:13:29;5.87;;;3.67;;
6203;SDS011;3135;42.602;23.468;2022-12-18T04:15:54;6.10;;;3.70;;
6203;SDS011;3135;42.602;23.468;2022-12-18T04:18:19;6.23;;;3.57;;
6203;SDS011;3135;42.602;23.468;2022-12-18T04:20:45;5.57;;;3.20;;
6203;SDS011;3135;42.602;23.468;2022-12-18T04:23:10;5.73;;;3.30;;
6203;SDS011;3135;42.602;23.468;2022-12-18T04:25:35;6.68;;;3.35;;
6203;SDS011;3135;42.602;23.468;2022-12-18T04:28:01;4.75;;;3.10;;
6203;SDS011;3135;42.602;23.468;2022-12-18T04:30:26;5.60;;;3.58;;
6203;SDS011;3135;42.602;23.468;2022-12-18T04:32:51;7.57;;;3.50;;
6203;SDS011;3135;42.602;23.468;2022-12-18T04:35:17;6.57;;;3.60;;
6203;SDS011;3135;42.602;23.468;2022-12-18T04:37:42;5.67;;;3.50;;
6203;SDS011;3135;42.602;23.468;2022-12-18T04:40:07;7.17;;;3.80;;
6203;SDS011;3135;42.602;23.468;2022-12-18T04:42:33;5.60;;;3.65;;
6203;SDS011;3135;42.602;23.468;2022-12-18T04:44:58;5.97;;;3.47;;
6203;SDS011;3135;42.602;23.468;2022-12-18T04:47:23;6.20;;;3.70;;
6203;SDS011;3135;42.602;23.468;2022-12-18T04:49:49;7.83;;;3.80;;
6203;SDS011;3135;42.602;23.468;2022-12-18T04:52:14;5.10;;;3.38;;
6203;SDS011;3135;42.602;23.468;2022-12-18T04:54:39;6.40;;;3.73;;
6203;SDS011;3135;42.602;23.468;2022-12-18T04:57:04;6.07;;;3.83;;
6203;SDS011;3135;42.602;23.468;2022-12-18T04:59:30;7.17;;;3.90;;
6203;SDS011;3135;42.602;23.468;2022-12-18T05:01:55;7.60;;;3.77;;
6203;SDS011;3135;42.602;23.468;2022-12-18T05:04:20;8.97;;;3.63;;
6203;SDS011;3135;42.602;23.468;2022-12-18T05:06:45;10.00;;;4.43;;
6203;SDS011;3135;42.602;23.468;2022-12-18T05:09:11;8.10;;;4.20;;
6203;SDS011;3135;42.602;23.468;2022-12-18T05:11:36;7.37;;;4.00;;
6203;SDS011;3135;42.602;23.468;2022-12-18T05:14:01;6.90;;;3.90;;
6203;SDS011;3135;42.602;23.468;2022-12-18T05:16:27;7.33;;;4.10;;
6203;SDS011;3135;42.602;23.468;2022-12-18T05:18:52;8.07;;;4.00;;
6203;SDS011;3135;42.602;23.468;2022-12-18T05:21:17;8.00;;;4.03;;
6203;SDS011;3135;42.602;23.468;2022-12-18T05:23:43;8.80;;;4.50;;
6203;SDS011;3135;42.602;23.468;2022-12-18T05:26:08;9.20;;;4.27;;
6203;SDS011;3135;42.602;23.468;2022-12-18T05:28:34;9.65;;;4.10;;
6203;SDS011;3135;42.602;23.468;2022-12-18T05:31:00;8.13;;;3.97;;
6203;SDS011;3135;42.602;23.468;2022-12-18T05:33:28;9.27;;;4.00;;
6203;SDS011;3135;42.602;23.468;2022-12-18T05:35:54;7.75;;;4.28;;
6203;SDS011;3135;42.602;23.468;2022-12-18T05:38:20;7.57;;;4.18;;
6203;SDS011;3135;42.602;23.468;2022-12-18T05:40:50;11.23;;;5.45;;
6203;SDS011;3135;42.602;23.468;2022-12-18T05:43:15;7.13;;;4.30;;
6203;SDS011;3135;42.602;23.468;2022-12-18T05:45:41;7.85;;;4.78;;
6203;SDS011;3135;42.602;23.468;2022-12-18T05:48:06;8.00;;;5.10;;
6203;SDS011;3135;42.602;23.468;2022-12-18T05:50:38;9.20;;;4.67;;
6203;SDS011;3135;42.602;23.468;2022-12-18T05:53:04;9.32;;;4.57;;
6203;SDS011;3135;42.602;23.468;2022-12-18T05:55:32;9.27;;;5.00;;
6203;SDS011;3135;42.602;23.468;2022-12-18T05:57:57;10.18;;;5.15;;
6203;SDS011;3135;42.602;23.468;2022-12-18T06:00:23;10.07;;;5.20;;
6203;SDS011;3135;42.602;23.468;2022-12-18T06:02:48;9.00;;;4.40;;
6203;SDS011;3135;42.602;23.468;2022-12-18T06:05:13;8.93;;;4.57;;
6203;SDS011;3135;42.602;23.468;2022-12-18T06:07:39;10.77;;;4.97;;
6203;SDS011;3135;42.602;23.468;2022-12-18T06:10:04;9.73;;;5.07;;
6203;SDS011;3135;42.602;23.468;2022-12-18T06:12:30;10.75;;;5.07;;
6203;SDS011;3135;42.602;23.468;2022-12-18T06:14:55;11.80;;;5.20;;
6203;SDS011;3135;42.602;23.468;2022-12-18T06:17:21;11.37;;;5.20;;
6203;SDS011;3135;42.602;23.468;2022-12-18T06:19:46;13.10;;;5.73;;
6203;SDS011;3135;42.602;23.468;2022-12-18T06:22:11;10.80;;;5.40;;
6203;SDS011;3135;42.602;23.468;2022-12-18T06:24:36;9.83;;;5.17;;
6203;SDS011;3135;42.602;23.468;2022-12-18T06:27:02;13.87;;;5.90;;
6203;SDS011;3135;42.602;23.468;2022-12-18T06:29:27;13.83;;;5.70;;
6203;SDS011;3135;42.602;23.468;2022-12-18T06:31:52;10.27;;;5.00;;
6203;SDS011;3135;42.602;23.468;2022-12-18T06:34:17;11.87;;;5.33;;
6203;SDS011;3135;42.602;23.468;2022-12-18T06:36:43;12.13;;;5.43;;
6203;SDS011;3135;42.602;23.468;2022-12-18T06:39:08;12.73;;;5.10;;
6203;SDS011;3135;42.602;23.468;2022-12-18T06:41:33;12.80;;;6.00;;
6203;SDS011;3135;42.602;23.468;2022-12-18T06:43:58;11.47;;;5.33;;
6203;SDS011;3135;42.602;23.468;2022-12-18T06:46:25;14.50;;;6.38;;
6203;SDS011;3135;42.602;23.468;2022-12-18T06:48:51;11.77;;;5.75;;
6203;SDS011;3135;42.602;23.468;2022-12-18T06:51:19;12.80;;;5.97;;
6203;SDS011;3135;42.602;23.468;2022-12-18T06:53:45;12.55;;;5.50;;
6203;SDS011;3135;42.602;23.468;2022-12-18T06:56:11;12.67;;;5.97;;
6203;SDS011;3135;42.602;23.468;2022-12-18T06:58:36;14.87;;;6.77;;
6203;SDS011;3135;42.602;23.468;2022-12-18T07:01:06;13.00;;;5.97;;
6203;SDS011;3135;42.602;23.468;2022-12-18T07:03:31;13.70;;;6.20;;
6203;SDS011;3135;42.602;23.468;2022-12-18T07:05:56;11.27;;;5.40;;
6203;SDS011;3135;42.602;23.468;2022-12-18T07:08:22;15.20;;;6.53;;
6203;SDS011;3135;42.602;23.468;2022-12-18T07:10:47;12.87;;;6.20;;
6203;SDS011;3135;42.602;23.468;2022-12-18T07:13:14;13.07;;;6.72;;
6203;SDS011;3135;42.602;23.468;2022-12-18T07:15:39;11.68;;;5.78;;
6203;SDS011;3135;42.602;23.468;2022-12-18T07:18:05;12.52;;;6.30;;
6203;SDS011;3135;42.602;23.468;2022-12-18T07:20:30;13.10;;;5.97;;
6203;SDS011;3135;42.602;23.468;2022-12-18T07:22:55;11.27;;;5.90;;
6203;SDS011;3135;42.602;23.468;2022-12-18T07:25:20;14.73;;;6.20;;
6203;SDS011;3135;42.602;23.468;2022-12-18T07:27:46;11.97;;;5.80;;
6203;SDS011;3135;42.602;23.468;2022-12-18T07:30:11;11.47;;;5.80;;
6203;SDS011;3135;42.602;23.468;2022-12-18T07:32:36;13.03;;;6.40;;
6203;SDS011;3135;42.602;23.468;2022-12-18T07:35:01;12.63;;;6.10;;
6203;SDS011;3135;42.602;23.468;2022-12-18T07:37:27;14.97;;;6.27;;
6203;SDS011;3135;42.602;23.468;2022-12-18T07:39:52;14.70;;;5.90;;
6203;SDS011;3135;42.602;23.468;2022-12-18T07:42:17;24.27;;;10.03;;
6203;SDS011;3135;42.602;23.468;2022-12-18T07:44:58;15.07;;;6.57;;
6203;SDS011;3135;42.602;23.468;2022-12-18T07:47:24;14.48;;;6.38;;
6203;SDS011;3135;42.602;23.468;2022-12-18T07:49:50;14.88;;;6.57;;
6203;SDS011;3135;42.602;23.468;2022-12-18T07:52:15;13.18;;;6.13;;
6203;SDS011;3135;42.602;23.468;2022-12-18T07:54:40;13.02;;;6.38;;
6203;SDS011;3135;42.602;23.468;2022-12-18T07:57:06;27.17;;;6.90;;
6203;SDS011;3135;42.602;23.468;2022-12-18T07:59:31;14.20;;;6.93;;
6203;SDS011;3135;42.602;23.468;2022-12-18T08:01:56;14.97;;;6.87;;
6203;SDS011;3135;42.602;23.468;2022-12-18T08:04:22;14.73;;;6.50;;
6203;SDS011;3135;42.602;23.468;2022-12-18T08:06:47;14.97;;;6.77;;
6203;SDS011;3135;42.602;23.468;2022-12-18T08:09:12;15.27;;;6.77;;
6203;SDS011;3135;42.602;23.468;2022-12-18T08:11:37;16.83;;;7.20;;
6203;SDS011;3135;42.602;23.468;2022-12-18T08:14:03;16.07;;;6.40;;
6203;SDS011;3135;42.602;23.468;2022-12-18T08:16:28;14.83;;;6.50;;
6203;SDS011;3135;42.602;23.468;2022-12-18T08:18:54;13.90;;;6.70;;
6203;SDS011;3135;42.602;23.468;2022-12-18T08:21:20;15.67;;;7.07;;
6203;SDS011;3135;42.602;23.468;2022-12-18T08:23:48;13.70;;;6.28;;
6203;SDS011;3135;42.602;23.468;2022-12-18T08:26:13;14.82;;;6.70;;
6203;SDS011;3135;42.602;23.468;2022-12-18T08:28:39;14.15;;;6.75;;
6203;SDS011;3135;42.602;23.468;2022-12-18T08:31:04;13.23;;;6.32;;
6203;SDS011;3135;42.602;23.468;2022-12-18T08:33:30;13.57;;;6.47;;
6203;SDS011;3135;42.602;23.468;2022-12-18T08:35:55;14.57;;;6.82;;
6203;SDS011;3135;42.602;23.468;2022-12-18T08:38:20;15.20;;;6.30;;
6203;SDS011;3135;42.602;23.468;2022-12-18T08:40:47;14.82;;;6.93;;
6203;SDS011;3135;42.602;23.468;2022-12-18T08:43:13;14.87;;;6.40;;
6203;SDS011;3135;42.602;23.468;2022-12-18T08:45:56;13.85;;;6.47;;
6203;SDS011;3135;42.602;23.468;2022-12-18T08:48:22;15.93;;;6.85;;
6203;SDS011;3135;42.602;23.468;2022-12-18T08:50:57;17.73;;;7.13;;
6203;SDS011;3135;42.602;23.468;2022-12-18T08:53:23;16.48;;;7.10;;
6203;SDS011;3135;42.602;23.468;2022-12-18T08:55:50;13.40;;;6.28;;
6203;SDS011;3135;42.602;23.468;2022-12-18T08:58:15;16.67;;;6.90;;
6203;SDS011;3135;42.602;23.468;2022-12-18T09:00:40;15.70;;;6.77;;
6203;SDS011;3135;42.602;23.468;2022-12-18T09:03:10;14.87;;;6.37;;
6203;SDS011;3135;42.602;23.468;2022-12-18T09:05:35;14.57;;;6.88;;
6203;SDS011;3135;42.602;23.468;2022-12-18T09:08:01;17.10;;;7.57;;
6203;SDS011;3135;42.602;23.468;2022-12-18T09:10:26;16.90;;;7.00;;
6203;SDS011;3135;42.602;23.468;2022-12-18T09:12:51;19.67;;;7.60;;
6203;SDS011;3135;42.602;23.468;2022-12-18T09:15:18;18.03;;;7.93;;
6203;SDS011;3135;42.602;23.468;2022-12-18T09:17:43;15.20;;;7.13;;
6203;SDS011;3135;42.602;23.468;2022-12-18T09:20:08;17.13;;;7.47;;
6203;SDS011;3135;42.602;23.468;2022-12-18T09:22:34;15.17;;;6.97;;
6203;SDS011;3135;42.602;23.468;2022-12-18T09:24:59;17.60;;;7.30;;
6203;SDS011;3135;42.602;23.468;2022-12-18T09:27:24;19.13;;;7.67;;
6203;SDS011;3135;42.602;23.468;2022-12-18T09:29:50;16.50;;;6.90;;
6203;SDS011;3135;42.602;23.468;2022-12-18T09:32:15;18.43;;;7.87;;
6203;SDS011;3135;42.602;23.468;2022-12-18T09:34:40;18.27;;;7.60;;
6203;SDS011;3135;42.602;23.468;2022-12-18T09:37:05;16.63;;;7.23;;
6203;SDS011;3135;42.602;23.468;2022-12-18T09:39:31;17.50;;;7.27;;
6203;SDS011;3135;42.602;23.468;2022-12-18T09:41:57;17.20;;;8.00;;
6203;SDS011;3135;42.602;23.468;2022-12-18T09:44:41;19.98;;;7.55;;
6203;SDS011;3135;42.602;23.468;2022-12-18T09:47:25;20.00;;;8.35;;
6203;SDS011;3135;42.602;23.468;2022-12-18T09:49:53;19.88;;;8.25;;
6203;SDS011;3135;42.602;23.468;2022-12-18T09:54:50;21.03;;;8.77;;
6203;SDS011;3135;42.602;23.468;2022-12-18T09:57:17;18.92;;;7.88;;
6203;SDS011;3135;42.602;23.468;2022-12-18T09:59:46;19.27;;;8.27;;
6203;SDS011;3135;42.602;23.468;2022-12-18T10:04:39;21.83;;;8.30;;
6203;SDS011;3135;42.602;23.468;2022-12-18T10:07:09;16.53;;;7.40;;
6203;SDS011;3135;42.602;23.468;2022-12-18T10:09:57;18.40;;;7.60;;
6203;SDS011;3135;42.602;23.468;2022-12-18T10:17:34;18.23;;;7.80;;
6203;SDS011;3135;42.602;23.468;2022-12-18T10:27:46;19.88;;;8.55;;
6203;SDS011;3135;42.602;23.468;2022-12-18T10:30:13;20.65;;;8.27;;
6203;SDS011;3135;42.602;23.468;2022-12-18T10:32:38;18.80;;;8.40;;
6203;SDS011;3135;42.602;23.468;2022-12-18T10:35:07;19.42;;;8.25;;
6203;SDS011;3135;42.602;23.468;2022-12-18T10:37:39;19.23;;;7.07;;
6203;SDS011;3135;42.602;23.468;2022-12-18T10:40:23;18.35;;;7.53;;
6203;SDS011;3135;42.602;23.468;2022-12-18T10:43:02;17.17;;;7.50;;
6203;SDS011;3135;42.602;23.468;2022-12-18T10:45:28;20.40;;;7.70;;
6203;SDS011;3135;42.602;23.468;2022-12-18T10:47:54;19.50;;;7.90;;
6203;SDS011;3135;42.602;23.468;2022-12-18T10:50:30;17.57;;;7.80;;
6203;SDS011;3135;42.602;23.468;2022-12-18T10:52:57;15.63;;;7.53;;
6203;SDS011;3135;42.602;23.468;2022-12-18T10:55:23;19.90;;;7.57;;
6203;SDS011;3135;42.602;23.468;2022-12-18T10:57:49;18.23;;;7.13;;
6203;SDS011;3135;42.602;23.468;2022-12-18T11:00:32;16.53;;;7.57;;
6203;SDS011;3135;42.602;23.468;2022-12-18T11:02:57;16.15;;;7.15;;
6203;SDS011;3135;42.602;23.468;2022-12-18T11:05:24;17.80;;;7.57;;
6203;SDS011;3135;42.602;23.468;2022-12-18T11:07:50;17.88;;;7.72;;
6203;SDS011;3135;42.602;23.468;2022-12-18T11:10:20;17.93;;;8.00;;
6203;SDS011;3135;42.602;23.468;2022-12-18T11:12:45;18.55;;;8.48;;
6203;SDS011;3135;42.602;23.468;2022-12-18T11:15:21;19.87;;;8.23;;
6203;SDS011;3135;42.602;23.468;2022-12-18T11:17:48;21.13;;;8.70;;
6203;SDS011;3135;42.602;23.468;2022-12-18T11:20:57;22.27;;;8.68;;
6203;SDS011;3135;42.602;23.468;2022-12-18T11:23:04;20.23;;;8.30;;
6203;SDS011;3135;42.602;23.468;2022-12-18T11:25:31;20.77;;;8.43;;
6203;SDS011;3135;42.602;23.468;2022-12-18T11:30:48;18.70;;;7.80;;
6203;SDS011;3135;42.602;23.468;2022-12-18T11:33:20;20.23;;;8.27;;
6203;SDS011;3135;42.602;23.468;2022-12-18T11:35:51;19.52;;;8.32;;
6203;SDS011;3135;42.602;23.468;2022-12-18T11:40:44;22.93;;;8.13;;
6203;SDS011;3135;42.602;23.468;2022-12-18T11:43:45;17.13;;;7.00;;
6203;SDS011;3135;42.602;23.468;2022-12-18T11:46:04;19.02;;;7.60;;
6203;SDS011;3135;42.602;23.468;2022-12-18T11:48:32;18.52;;;7.47;;
6203;SDS011;3135;42.602;23.468;2022-12-18T11:50:59;16.38;;;6.95;;
6203;SDS011;3135;42.602;23.468;2022-12-18T11:53:25;18.02;;;6.95;;
6203;SDS011;3135;42.602;23.468;2022-12-18T12:06:08;18.30;;;7.68;;
6203;SDS011;3135;42.602;23.468;2022-12-18T12:13:34;16.20;;;6.70;;
6203;SDS011;3135;42.602;23.468;2022-12-18T12:16:10;15.20;;;6.40;;
6203;SDS011;3135;42.602;23.468;2022-12-18T12:26:27;17.97;;;6.77;;
6203;SDS011;3135;42.602;23.468;2022-12-18T12:29:00;17.03;;;6.60;;
6203;SDS011;3135;42.602;23.468;2022-12-18T12:38:55;16.92;;;6.75;;
6203;SDS011;3135;42.602;23.468;2022-12-18T12:41:23;17.17;;;7.00;;
6203;SDS011;3135;42.602;23.468;2022-12-18T12:44:09;15.88;;;6.63;;
6203;SDS011;3135;42.602;23.468;2022-12-18T12:46:39;17.88;;;7.22;;
6203;SDS011;3135;42.602;23.468;2022-12-18T12:49:12;16.08;;;6.80;;
6203;SDS011;3135;42.602;23.468;2022-12-18T12:51:39;16.83;;;6.72;;
6203;SDS011;3135;42.602;23.468;2022-12-18T12:54:09;16.23;;;7.00;;
6203;SDS011;3135;42.602;23.468;2022-12-18T12:56:41;18.33;;;7.30;;
6203;SDS011;3135;42.602;23.468;2022-12-18T13:09:02;14.73;;;7.00;;
6203;SDS011;3135;42.602;23.468;2022-12-18T13:11:46;18.25;;;7.43;;
6203;SDS011;3135;42.602;23.468;2022-12-18T13:14:34;19.35;;;8.00;;
6203;SDS011;3135;42.602;23.468;2022-12-18T13:17:42;16.92;;;7.32;;
6203;SDS011;3135;42.602;23.468;2022-12-18T13:19:50;18.73;;;7.80;;
6203;SDS011;3135;42.602;23.468;2022-12-18T13:22:22;17.30;;;7.60;;
6203;SDS011;3135;42.602;23.468;2022-12-18T13:24:48;17.45;;;7.40;;
6203;SDS011;3135;42.602;23.468;2022-12-18T13:29:58;19.55;;;8.15;;
6203;SDS011;3135;42.602;23.468;2022-12-18T13:32:24;19.10;;;8.47;;
6203;SDS011;3135;42.602;23.468;2022-12-18T13:37:41;26.05;;;8.60;;
6203;SDS011;3135;42.602;23.468;2022-12-18T13:42:51;21.75;;;9.18;;
6203;SDS011;3135;42.602;23.468;2022-12-18T13:45:42;20.60;;;8.60;;
6203;SDS011;3135;42.602;23.468;2022-12-18T13:48:26;22.60;;;8.90;;
6203;SDS011;3135;42.602;23.468;2022-12-18T13:51:03;22.05;;;9.30;;
6203;SDS011;3135;42.602;23.468;2022-12-18T13:53:33;27.20;;;9.00;;
6203;SDS011;3135;42.602;23.468;2022-12-18T13:55:59;21.73;;;8.52;;
6203;SDS011;3135;42.602;23.468;2022-12-18T13:58:25;20.40;;;8.43;;
6203;SDS011;3135;42.602;23.468;2022-12-18T14:00:50;21.60;;;8.70;;
6203;SDS011;3135;42.602;23.468;2022-12-18T14:03:17;18.73;;;8.60;;
6203;SDS011;3135;42.602;23.468;2022-12-18T14:05:43;22.33;;;9.17;;
6203;SDS011;3135;42.602;23.468;2022-12-18T14:08:13;20.85;;;8.98;;
6203;SDS011;3135;42.602;23.468;2022-12-18T14:10:43;21.70;;;9.05;;
6203;SDS011;3135;42.602;23.468;2022-12-18T14:13:09;18.10;;;8.50;;
6203;SDS011;3135;42.602;23.468;2022-12-18T14:15:36;21.83;;;8.50;;
6203;SDS011;3135;42.602;23.468;2022-12-18T14:20:39;20.85;;;8.60;;
6203;SDS011;3135;42.602;23.468;2022-12-18T14:23:24;19.25;;;8.10;;
6203;SDS011;3135;42.602;23.468;2022-12-18T14:25:49;20.63;;;8.68;;
6203;SDS011;3135;42.602;23.468;2022-12-18T14:28:14;20.25;;;8.38;;
6203;SDS011;3135;42.602;23.468;2022-12-18T14:30:41;19.67;;;8.23;;
6203;SDS011;3135;42.602;23.468;2022-12-18T14:33:10;19.03;;;8.70;;
6203;SDS011;3135;42.602;23.468;2022-12-18T14:35:37;20.85;;;8.32;;
6203;SDS011;3135;42.602;23.468;2022-12-18T14:41:00;21.02;;;8.75;;
6203;SDS011;3135;42.602;23.468;2022-12-18T14:43:26;25.27;;;9.33;;
6203;SDS011;3135;42.602;23.468;2022-12-18T14:45:52;22.85;;;9.43;;
6203;SDS011;3135;42.602;23.468;2022-12-18T14:48:22;43.00;;;16.92;;
6203;SDS011;3135;42.602;23.468;2022-12-18T14:53:43;23.90;;;9.15;;
6203;SDS011;3135;42.602;23.468;2022-12-18T14:56:13;25.23;;;10.40;;
6203;SDS011;3135;42.602;23.468;2022-12-18T14:58:39;21.88;;;8.40;;
6203;SDS011;3135;42.602;23.468;2022-12-18T15:01:09;20.83;;;8.50;;
6203;SDS011;3135;42.602;23.468;2022-12-18T15:03:43;18.45;;;7.50;;
6203;SDS011;3135;42.602;23.468;2022-12-18T15:06:42;19.77;;;8.37;;
6203;SDS011;3135;42.602;23.468;2022-12-18T15:09:01;18.75;;;7.50;;
6203;SDS011;3135;42.602;23.468;2022-12-18T15:16:54;17.92;;;7.70;;
6203;SDS011;3135;42.602;23.468;2022-12-18T15:19:20;17.48;;;7.18;;
6203;SDS011;3135;42.602;23.468;2022-12-18T15:21:46;18.67;;;7.22;;
6203;SDS011;3135;42.602;23.468;2022-12-18T15:24:23;18.73;;;7.77;;
6203;SDS011;3135;42.602;23.468;2022-12-18T15:26:49;15.68;;;6.90;;
6203;SDS011;3135;42.602;23.468;2022-12-18T15:29:17;15.60;;;7.13;;
6203;SDS011;3135;42.602;23.468;2022-12-18T15:31:43;18.85;;;6.57;;
6203;SDS011;3135;42.602;23.468;2022-12-18T15:34:12;16.00;;;7.18;;
6203;SDS011;3135;42.602;23.468;2022-12-18T15:36:38;15.68;;;7.45;;
6203;SDS011;3135;42.602;23.468;2022-12-18T15:39:03;22.67;;;7.43;;
6203;SDS011;3135;42.602;23.468;2022-12-18T15:41:30;16.97;;;7.33;;
6203;SDS011;3135;42.602;23.468;2022-12-18T15:43:55;20.08;;;7.28;;
6203;SDS011;3135;42.602;23.468;2022-12-18T15:46:22;16.00;;;6.83;;
6203;SDS011;3135;42.602;23.468;2022-12-18T15:48:48;18.08;;;7.25;;
6203;SDS011;3135;42.602;23.468;2022-12-18T15:51:21;14.98;;;7.00;;
6203;SDS011;3135;42.602;23.468;2022-12-18T15:53:48;14.68;;;6.65;;
6203;SDS011;3135;42.602;23.468;2022-12-18T15:56:15;13.63;;;6.30;;
6203;SDS011;3135;42.602;23.468;2022-12-18T15:58:59;15.80;;;6.55;;
6203;SDS011;3135;42.602;23.468;2022-12-18T16:01:25;16.60;;;6.73;;
6203;SDS011;3135;42.602;23.468;2022-12-18T16:03:51;20.80;;;8.20;;
6203;SDS011;3135;42.602;23.468;2022-12-18T16:06:16;15.93;;;6.82;;
6203;SDS011;3135;42.602;23.468;2022-12-18T16:08:41;16.38;;;6.82;;
6203;SDS011;3135;42.602;23.468;2022-12-18T16:11:11;17.35;;;7.07;;
6203;SDS011;3135;42.602;23.468;2022-12-18T16:13:44;17.00;;;6.50;;
6203;SDS011;3135;42.602;23.468;2022-12-18T16:16:10;16.30;;;6.83;;
6203;SDS011;3135;42.602;23.468;2022-12-18T16:18:35;15.70;;;6.80;;
6203;SDS011;3135;42.602;23.468;2022-12-18T16:21:00;17.03;;;7.00;;
6203;SDS011;3135;42.602;23.468;2022-12-18T16:23:25;16.00;;;6.80;;
6203;SDS011;3135;42.602;23.468;2022-12-18T16:25:52;15.15;;;6.72;;
6203;SDS011;3135;42.602;23.468;2022-12-18T16:28:17;15.70;;;6.47;;
6203;SDS011;3135;42.602;23.468;2022-12-18T16:30:42;18.23;;;6.87;;
6203;SDS011;3135;42.602;23.468;2022-12-18T16:33:08;17.20;;;6.65;;
6203;SDS011;3135;42.602;23.468;2022-12-18T16:35:33;16.58;;;6.35;;
6203;SDS011;3135;42.602;23.468;2022-12-18T16:37:58;17.47;;;6.90;;
6203;SDS011;3135;42.602;23.468;2022-12-18T16:40:24;18.47;;;7.43;;
6203;SDS011;3135;42.602;23.468;2022-12-18T16:42:49;20.13;;;7.90;;
6203;SDS011;3135;42.602;23.468;2022-12-18T16:45:16;19.00;;;7.23;;
6203;SDS011;3135;42.602;23.468;2022-12-18T16:47:41;16.50;;;6.82;;
6203;SDS011;3135;42.602;23.468;2022-12-18T16:50:07;15.37;;;6.50;;
6203;SDS011;3135;42.602;23.468;2022-12-18T16:52:33;17.30;;;6.63;;
6203;SDS011;3135;42.602;23.468;2022-12-18T16:54:58;19.63;;;6.32;;
6203;SDS011;3135;42.602;23.468;2022-12-18T16:57:24;15.70;;;6.87;;
6203;SDS011;3135;42.602;23.468;2022-12-18T16:59:49;16.20;;;7.03;;
6203;SDS011;3135;42.602;23.468;2022-12-18T17:02:21;15.53;;;6.30;;